CheckWX is a tool to help pilots better visualize weather data.  It is not intended as a substitute for an official pre-flight weather briefing.

10:04:46 UTC

KCRQ METAR
Mc Clellan-Palomar Airport
Carlsbad, California, USA
Current

12 mins ago

KCRQ 200953Z AUTO 08004KT 10SM CLR 07/01 A3008 RMK AO2 SLPNO T00720006 $
Observed
Feb-20 @ 09:53 UTC
Wind
  • 080° at 4 KTS
Visibility
16,093 meters
Flight Rules
VFR
Cloud Levels
  • Clear skies
Temperature
C / 45°F
Dewpoint
C / 34°F
Humidity
66%
Altimeter
30.08" Hg
Pressure
1018.62 hPa
Previous

1 hour ago

KCRQ 200853Z AUTO 08004KT 10SM CLR 07/01 A3009 RMK AO2 SLP189 T00670006 58010 $
Observed
Feb-20 @ 08:53 UTC
Wind
  • 080° at 4 KTS
Visibility
16,093 meters
Flight Rules
VFR
Cloud Levels
  • Clear skies
Temperature
C / 45°F
Dewpoint
C / 34°F
Humidity
66%
Altimeter
30.09" Hg
Pressure
1018.9 hPa
Previous

2 hours ago

KCRQ 200753Z AUTO 08004KT 10SM CLR 08/01 A3011 RMK AO2 SLP195 T00780006 401560044 $
Observed
Feb-20 @ 07:53 UTC
Wind
  • 080° at 4 KTS
Visibility
16,093 meters
Flight Rules
VFR
Cloud Levels
  • Clear skies
Temperature
C / 46°F
Dewpoint
C / 34°F
Humidity
62%
Altimeter
30.11" Hg
Pressure
1019.5 hPa